Archiv-/Tagesdaten

--Timestamp---	Temp	Chill	HIndex	Humid	Dewpt	Wind	HiWind	WindDir	Rain	Barom	Solar	ET	UV
--------------	----	-----	------	-----	-----	----	------	-------	----	-----	-----	--	--
20071215 00:05	-2.7	-2.7	-2.7	77	-6.1	5	10	0	0.00	1033.935	0	0.000	0
20071215 00:10	-2.7	-2.7	-2.7	77	-6.1	5	10	0	0.00	1033.901	0	0.000	0
20071215 00:15	-2.6	-2.6	-2.6	78	-5.9	5	10	0	0.00	1033.867	0	0.000	0
20071215 00:20	-2.6	-2.6	-2.6	78	-5.9	5	10	0	0.00	1033.901	0	0.000	0
20071215 00:25	-2.7	-2.7	-2.7	78	-6.0	5	11	0	0.00	1033.969	0	0.000	0
20071215 00:30	-2.7	-2.7	-2.7	79	-5.8	5	10	0	0.00	1034.037	0	0.000	0
20071215 00:35	-2.7	-5.9	-2.7	78	-6.0	8	11	0	0.00	1034.037	0	0.000	0
20071215 00:40	-2.7	-5.3	-2.7	78	-6.0	6	11	0	0.00	1033.833	0	0.000	0
20071215 00:45	-2.7	-2.7	-2.7	78	-6.0	3	10	0	0.00	1033.664	0	0.000	0
20071215 00:50	-2.7	-2.7	-2.7	78	-6.0	5	10	0	0.00	1033.664	0	0.000	0
20071215 00:55	-2.8	-2.8	-2.8	78	-6.1	5	10	0	0.00	1033.732	0	0.000	0
20071215 01:00	-2.8	-2.8	-2.8	79	-5.9	5	10	0	0.00	1033.901	0	0.020	0
20071215 01:05	-2.8	-5.4	-2.8	79	-5.9	6	10	0	0.00	1033.935	0	0.000	0
20071215 01:10	-2.7	-2.7	-2.7	79	-5.9	5	8	0	0.00	1033.935	0	0.000	0
20071215 01:15	-2.7	-2.7	-2.7	79	-5.9	5	10	0	0.00	1033.901	0	0.000	0
20071215 01:20	-2.7	-2.7	-2.7	80	-5.7	5	10	0	0.00	1033.833	0	0.000	0
20071215 01:25	-2.8	-6.6	-2.8	79	-6.0	10	16	0	0.00	1033.698	0	0.000	0
20071215 01:30	-2.9	-6.1	-2.9	79	-6.0	8	14	0	0.00	1033.664	0	0.000	0
20071215 01:35	-2.9	-5.6	-2.9	80	-5.9	6	10	0	0.00	1033.630	0	0.000	0
20071215 01:40	-3.0	-5.6	-3.0	80	-6.0	6	11	0	0.00	1033.698	0	0.000	0
20071215 01:45	-3.0	-6.3	-3.0	81	-5.8	8	11	0	0.00	1033.766	0	0.000	0
20071215 01:50	-2.9	-2.9	-2.9	81	-5.7	5	10	0	0.00	1033.664	0	0.000	0
20071215 01:55	-3.0	-3.0	-3.0	82	-5.6	5	10	0	0.00	1033.833	0	0.000	0
20071215 02:00	-3.0	-5.6	-3.0	82	-5.6	6	11	0	0.00	1033.901	0	0.020	0
20071215 02:05	-3.0	-6.3	-3.0	81	-5.8	8	14	0	0.00	1033.935	0	0.000	0
20071215 02:10	-3.0	-6.3	-3.0	82	-5.6	8	13	0	0.00	1033.901	0	0.000	0
20071215 02:15	-3.0	-5.6	-3.0	82	-5.6	6	11	0	0.00	1034.003	0	0.000	0
20071215 02:20	-3.1	-5.7	-3.1	82	-5.7	6	14	0	0.00	1034.037	0	0.000	0
20071215 02:25	-3.0	-6.3	-3.0	82	-5.6	8	16	0	0.00	1034.071	0	0.000	0
20071215 02:30	-3.1	-6.8	-3.1	82	-5.7	10	16	0	0.00	1034.003	0	0.000	0
20071215 02:35	-3.1	-5.7	-3.1	83	-5.5	6	11	0	0.00	1033.935	0	0.000	0
20071215 02:40	-3.1	-5.7	-3.1	83	-5.5	6	11	0	0.00	1033.969	0	0.000	0
20071215 02:45	-3.1	-3.1	-3.1	83	-5.5	5	11	0	0.00	1033.901	0	0.000	0
20071215 02:50	-3.1	-5.7	-3.1	83	-5.5	6	10	0	0.00	1033.867	0	0.000	0
20071215 02:55	-3.1	-3.1	-3.1	84	-5.4	5	8	0	0.00	1033.901	0	0.000	0
20071215 03:00	-3.1	-3.1	-3.1	84	-5.4	5	8	0	0.00	1033.935	0	0.000	0
20071215 03:05	-3.1	-3.1	-3.1	84	-5.4	5	11	0	0.00	1034.037	0	0.000	0
20071215 03:10	-3.1	-3.1	-3.1	84	-5.4	5	10	0	0.00	1034.071	0	0.000	0
20071215 03:15	-3.1	-5.8	-3.1	84	-5.4	6	11	0	0.00	1034.003	0	0.000	0
20071215 03:20	-3.1	-3.1	-3.1	84	-5.4	5	8	0	0.00	1034.037	0	0.000	0
20071215 03:25	-3.1	-5.8	-3.1	84	-5.4	6	10	0	0.00	1034.003	0	0.000	0
20071215 03:30	-3.1	-5.7	-3.1	84	-5.4	6	11	0	0.00	1033.901	0	0.000	0
20071215 03:35	-3.1	-5.8	-3.1	83	-5.6	6	11	0	0.00	1034.003	0	0.000	0
20071215 03:40	-3.1	-5.8	-3.1	84	-5.4	6	11	0	0.00	1034.037	0	0.000	0
20071215 03:45	-3.1	-3.1	-3.1	84	-5.4	5	10	0	0.00	1034.003	0	0.000	0
20071215 03:50	-3.1	-3.1	-3.1	85	-5.2	3	6	0	0.00	1033.969	0	0.000	0
20071215 03:55	-3.1	-5.8	-3.1	84	-5.4	6	10	0	0.00	1033.935	0	0.000	0
20071215 04:00	-3.2	-3.2	-3.2	85	-5.3	5	8	0	0.00	1034.003	0	0.000	0
20071215 04:05	-3.2	-3.2	-3.2	86	-5.2	5	8	0	0.00	1033.901	0	0.000	0
20071215 04:10	-3.2	-3.2	-3.2	86	-5.2	3	6	0	0.00	1033.833	0	0.000	0
20071215 04:15	-3.2	-3.2	-3.2	86	-5.2	5	8	0	0.00	1033.867	0	0.000	0
20071215 04:20	-3.3	-3.3	-3.3	86	-5.3	5	8	0	0.00	1033.800	0	0.000	0
20071215 04:25	-3.3	-3.3	-3.3	86	-5.3	3	8	0	0.00	1033.732	0	0.000	0
20071215 04:30	-3.4	-3.4	-3.4	87	-5.2	3	6	0	0.00	1033.833	0	0.000	0
20071215 04:35	-3.4	-3.4	-3.4	87	-5.3	3	6	0	0.00	1033.833	0	0.000	0
20071215 04:40	-3.4	-3.4	-3.4	88	-5.1	2	5	0	0.00	1033.867	0	0.000	0
20071215 04:45	-3.4	-3.4	-3.4	88	-5.1	3	6	0	0.00	1033.800	0	0.000	0
20071215 04:50	-3.5	-3.5	-3.5	88	-5.2	3	8	0	0.00	1033.732	0	0.000	0
20071215 04:55	-3.5	-3.5	-3.5	88	-5.2	3	8	0	0.00	1033.732	0	0.000	0
20071215 05:00	-3.5	-3.5	-3.5	88	-5.2	3	5	0	0.00	1033.732	0	0.000	0
20071215 05:05	-3.5	-3.5	-3.5	88	-5.2	5	8	0	0.00	1033.698	0	0.000	0
20071215 05:10	-3.5	-3.5	-3.5	88	-5.2	5	8	0	0.00	1033.664	0	0.000	0
20071215 05:15	-3.5	-3.5	-3.5	88	-5.2	5	8	0	0.00	1033.698	0	0.000	0
20071215 05:20	-3.5	-3.5	-3.5	89	-5.0	5	8	0	0.00	1033.664	0	0.000	0
20071215 05:25	-3.5	-3.5	-3.5	89	-5.0	5	6	0	0.00	1033.664	0	0.000	0
20071215 05:30	-3.5	-3.5	-3.5	89	-5.0	5	6	0	0.00	1033.698	0	0.000	0
20071215 05:35	-3.4	-3.4	-3.4	89	-5.0	5	6	0	0.00	1033.732	0	0.000	0
20071215 05:40	-3.4	-3.4	-3.4	89	-5.0	5	8	0	0.00	1033.664	0	0.000	0
20071215 05:45	-3.4	-3.4	-3.4	88	-5.1	5	8	0	0.00	1033.630	0	0.000	0
20071215 05:50	-3.4	-6.2	-3.4	88	-5.1	6	10	0	0.00	1033.698	0	0.000	0
20071215 05:55	-3.4	-3.4	-3.4	89	-5.0	5	10	0	0.00	1033.664	0	0.000	0
20071215 06:00	-3.4	-6.2	-3.4	89	-5.0	6	10	0	0.00	1033.698	0	0.000	0
20071215 06:05	-3.4	-3.4	-3.4	89	-5.0	5	8	0	0.00	1033.630	0	0.000	0
20071215 06:10	-3.4	-3.4	-3.4	89	-4.9	3	6	0	0.00	1033.630	0	0.000	0
20071215 06:15	-3.3	-3.3	-3.3	89	-4.9	3	8	0	0.00	1033.563	0	0.000	0
20071215 06:20	-3.3	-3.3	-3.3	88	-5.0	5	10	0	0.00	1033.563	0	0.000	0
20071215 06:25	-3.3	-3.3	-3.3	88	-5.0	3	6	0	0.00	1033.495	0	0.000	0
20071215 06:30	-3.3	-3.3	-3.3	88	-5.0	3	6	0	0.00	1033.596	0	0.000	0
20071215 06:35	-3.3	-3.3	-3.3	88	-5.0	5	8	0	0.00	1033.630	0	0.000	0
20071215 06:40	-3.2	-5.9	-3.2	88	-4.9	6	10	0	0.00	1033.664	0	0.000	0
20071215 06:45	-3.2	-5.9	-3.2	88	-4.9	6	11	0	0.00	1033.664	0	0.000	0
20071215 06:50	-3.2	-3.2	-3.2	88	-4.9	5	10	0	0.00	1033.698	0	0.000	0
20071215 06:55	-3.2	-3.2	-3.2	87	-5.0	5	11	0	0.00	1033.664	0	0.000	0
20071215 07:00	-3.2	-3.2	-3.2	86	-5.2	5	11	0	0.00	1033.664	0	0.000	0
20071215 07:05	-3.2	-5.8	-3.2	85	-5.3	6	14	0	0.00	1033.664	0	0.000	0
20071215 07:10	-3.2	-5.9	-3.2	84	-5.5	6	16	0	0.00	1033.766	0	0.000	0
20071215 07:15	-3.2	-5.9	-3.2	84	-5.5	6	21	0	0.00	1033.833	0	0.000	0
20071215 07:20	-3.3	-6.0	-3.3	84	-5.6	6	13	0	0.00	1033.901	0	0.000	0
20071215 07:25	-3.3	-6.0	-3.3	84	-5.6	6	14	0	0.00	1033.935	0	0.000	0
20071215 07:30	-3.4	-3.4	-3.4	84	-5.8	5	11	0	0.00	1033.901	0	0.000	0
20071215 07:35	-3.4	-6.2	-3.4	84	-5.8	6	14	0	0.00	1033.901	0	0.000	0
20071215 07:40	-3.6	-3.6	-3.6	85	-5.7	5	14	0	0.00	1033.935	0	0.000	0
20071215 07:45	-3.6	-7.0	-3.6	84	-5.9	8	18	0	0.00	1033.935	0	0.000	0
20071215 07:50	-3.7	-7.0	-3.7	83	-6.1	8	19	0	0.00	1034.104	0	0.000	0
20071215 07:55	-3.8	-6.5	-3.8	83	-6.2	6	18	0	0.00	1034.172	0	0.000	0
20071215 08:00	-3.8	-6.6	-3.8	82	-6.4	6	16	0	0.00	1034.240	0	0.000	0
20071215 08:05	-3.9	-7.9	-3.9	82	-6.6	10	21	0	0.00	1034.308	3	0.000	0
20071215 08:10	-4.1	-8.0	-4.1	82	-6.7	10	21	0	0.00	1034.308	5	0.000	0
20071215 08:15	-4.1	-7.6	-4.1	82	-6.7	8	16	0	0.00	1034.341	8	0.000	0
20071215 08:20	-4.2	-4.2	-4.2	82	-6.8	5	14	0	0.00	1034.341	11	0.000	0
20071215 08:25	-4.2	-7.1	-4.2	82	-6.8	6	16	0	0.00	1034.341	12	0.000	0
20071215 08:30	-4.2	-7.7	-4.2	82	-6.8	8	16	0	0.00	1034.409	14	0.000	0
20071215 08:35	-4.3	-4.3	-4.3	82	-6.9	5	11	0	0.00	1034.409	15	0.000	0
20071215 08:40	-4.3	-7.8	-4.3	82	-6.9	8	16	0	0.00	1034.578	17	0.000	0
20071215 08:45	-4.3	-8.3	-4.3	82	-6.9	10	18	0	0.00	1034.578	19	0.000	0
20071215 08:50	-4.3	-7.8	-4.3	83	-6.7	8	21	0	0.00	1034.714	21	0.000	0
20071215 08:55	-4.2	-7.7	-4.2	83	-6.7	8	18	0	0.00	1034.782	23	0.000	0
20071215 09:00	-4.2	-7.7	-4.2	83	-6.7	8	18	0	0.00	1034.849	24	0.020	0
20071215 09:05	-4.2	-7.1	-4.2	84	-6.5	6	14	0	0.00	1034.883	25	0.000	0
20071215 09:10	-4.2	-7.0	-4.2	84	-6.5	6	16	0	0.00	1034.951	26	0.000	0
20071215 09:15	-4.2	-7.0	-4.2	84	-6.5	6	14	0	0.00	1034.917	27	0.000	0
20071215 09:20	-4.1	-6.9	-4.1	83	-6.6	6	19	0	0.00	1034.917	28	0.000	0
20071215 09:25	-4.1	-7.6	-4.1	84	-6.4	8	18	0	0.00	1035.053	29	0.000	0
20071215 09:30	-4.1	-8.1	-4.1	83	-6.6	10	19	0	0.00	1034.951	31	0.000	0
20071215 09:35	-4.1	-7.5	-4.1	82	-6.7	8	23	0	0.00	1034.951	33	0.000	0
20071215 09:40	-4.0	-8.0	-4.0	82	-6.6	10	21	0	0.00	1034.951	33	0.000	0
20071215 09:45	-3.9	-8.4	-3.9	82	-6.6	11	24	0	0.00	1034.985	36	0.000	0
20071215 09:50	-3.9	-8.3	-3.9	82	-6.5	11	24	0	0.00	1034.985	36	0.000	0
20071215 09:55	-3.8	-8.2	-3.8	82	-6.4	11	23	0	0.00	1034.985	38	0.000	0
20071215 10:00	-3.8	-7.7	-3.8	81	-6.6	10	23	0	0.00	1034.985	43	0.020	0
20071215 10:05	-3.7	-7.1	-3.7	82	-6.3	8	24	0	0.00	1035.120	43	0.000	0
20071215 10:10	-3.7	-7.6	-3.7	80	-6.6	10	21	0	0.00	1035.086	42	0.000	0
20071215 10:15	-3.6	-7.0	-3.6	81	-6.4	8	16	0	0.00	1034.951	47	0.000	0
20071215 10:20	-3.5	-7.8	-3.5	79	-6.6	11	23	0	0.00	1034.951	53	0.000	0
20071215 10:25	-3.4	-7.8	-3.4	80	-6.4	11	24	0	0.00	1034.951	54	0.000	0
20071215 10:30	-3.4	-7.7	-3.4	79	-6.5	11	23	0	0.00	1034.917	52	0.000	0
20071215 10:35	-3.3	-7.2	-3.3	79	-6.4	10	21	0	0.00	1034.883	57	0.000	0
20071215 10:40	-3.2	-6.5	-3.2	79	-6.3	8	16	0	0.00	1034.917	58	0.000	0
20071215 10:45	-3.2	-6.5	-3.2	78	-6.4	8	18	0	0.00	1034.883	52	0.000	0
20071215 10:50	-3.2	-8.2	-3.2	76	-6.8	14	23	0	0.00	1034.748	58	0.000	0
20071215 10:55	-3.2	-8.2	-3.2	76	-6.8	14	26	0	0.00	1034.748	53	0.000	0
20071215 11:00	-3.0	-6.8	-3.0	78	-6.3	10	21	0	0.00	1034.748	51	0.020	0
20071215 11:05	-2.9	-7.2	-2.9	77	-6.4	11	26	0	0.00	1034.714	201	0.000	0
20071215 11:10	-2.8	-7.0	-2.8	76	-6.4	11	19	0	0.00	1034.714	258	0.000	0
20071215 11:15	-2.8	-7.7	-2.8	75	-6.6	14	29	22	0.00	1034.646	266	0.000	0
20071215 11:20	-2.7	-6.8	-2.7	75	-6.5	11	27	22	0.00	1034.680	269	0.000	1
20071215 11:25	-2.7	-6.4	-2.7	75	-6.5	10	19	22	0.00	1034.680	271	0.000	1
20071215 11:30	-2.6	-5.8	-2.6	74	-6.6	8	18	22	0.00	1034.612	259	0.000	1
20071215 11:35	-2.6	-6.8	-2.6	74	-6.6	11	21	22	0.00	1034.612	188	0.000	1
20071215 11:40	-2.6	-6.8	-2.6	73	-6.8	11	23	22	0.00	1034.612	228	0.000	1
20071215 11:45	-2.7	-7.2	-2.7	72	-7.0	13	27	22	0.00	1034.578	67	0.000	1
20071215 11:50	-2.6	-6.2	-2.6	73	-6.7	10	21	22	0.00	1034.578	307	0.000	1
20071215 11:55	-2.4	-7.3	-2.4	71	-7.0	14	27	22	0.00	1034.545	317	0.000	1
20071215 12:00	-2.3	-7.2	-2.3	71	-6.9	14	27	45	0.00	1034.545	321	0.080	1
20071215 12:05	-2.2	-6.2	-2.2	71	-6.7	11	21	45	0.00	1034.545	329	0.000	1
20071215 12:10	-2.1	-6.1	-2.1	70	-6.8	11	26	135	0.00	1034.511	374	0.000	1
20071215 12:15	-1.9	-5.0	-1.9	71	-6.4	8	18	135	0.00	1034.274	358	0.000	1
20071215 12:20	-1.8	-4.8	-1.8	71	-6.3	8	19	135	0.00	1034.341	382	0.000	1
20071215 12:25	-1.7	-5.3	-1.7	72	-6.1	10	18	135	0.00	1034.274	377	0.000	0
20071215 12:30	-2.0	-6.4	-2.0	71	-6.5	13	23	45	0.00	1034.341	370	0.000	0
20071215 12:35	-1.9	-5.5	-1.9	72	-6.3	10	19	45	0.00	1034.206	366	0.000	0
20071215 12:40	-1.8	-5.4	-1.8	70	-6.6	10	21	45	0.00	1034.240	357	0.000	0
20071215 12:45	-1.8	-5.4	-1.8	71	-6.4	10	19	45	0.00	1034.240	350	0.000	0
20071215 12:50	-1.8	-4.8	-1.8	70	-6.5	8	18	45	0.00	1034.240	365	0.000	0
20071215 12:55	-1.8	-5.4	-1.8	70	-6.6	10	19	45	0.00	1034.341	192	0.000	0
20071215 13:00	-1.9	-6.3	-1.9	70	-6.6	13	24	45	0.00	1034.341	127	0.100	0
20071215 13:05	-1.9	-6.3	-1.9	66	-7.4	13	24	67	0.00	1034.308	129	0.000	0
20071215 13:10	-2.0	-6.4	-2.0	68	-7.1	13	27	67	0.00	1034.443	130	0.000	0
20071215 13:15	-1.8	-6.6	-1.8	68	-6.9	14	24	67	0.00	1034.274	303	0.000	0
20071215 13:20	-1.7	-5.7	-1.7	67	-7.0	11	23	67	0.00	1034.206	298	0.000	0
20071215 13:25	-1.5	-5.0	-1.5	67	-6.8	10	21	67	0.00	1034.240	246	0.000	0
20071215 13:30	-1.7	-5.2	-1.7	67	-7.0	10	18	67	0.00	1034.308	69	0.000	0
20071215 13:35	-1.8	-4.9	-1.8	68	-6.9	8	18	67	0.00	1034.308	62	0.000	0
20071215 13:40	-1.9	-5.0	-1.9	69	-6.8	8	21	67	0.00	1034.341	60	0.000	0
20071215 13:45	-2.0	-5.6	-2.0	68	-7.1	10	21	67	0.00	1034.477	73	0.000	0
20071215 13:50	-2.0	-6.0	-2.0	66	-7.5	11	19	67	0.00	1034.443	62	0.000	0
20071215 13:55	-2.1	-5.1	-2.1	68	-7.2	8	19	67	0.00	1034.443	56	0.000	0
20071215 14:00	-1.9	-5.0	-1.9	67	-7.2	8	18	67	0.00	1034.409	121	0.060	0
20071215 14:05	-1.8	-4.8	-1.8	69	-6.7	8	16	67	0.00	1034.443	217	0.000	0
20071215 14:10	-1.7	-4.1	-1.7	69	-6.6	6	14	67	0.00	1034.443	215	0.000	0
20071215 14:15	-1.7	-4.7	-1.7	67	-7.0	8	18	67	0.00	1034.409	105	0.000	0
20071215 14:20	-1.8	-4.2	-1.8	69	-6.7	6	18	67	0.00	1034.375	74	0.000	0
20071215 14:25	-1.8	-4.9	-1.8	69	-6.8	8	21	67	0.00	1034.511	64	0.000	0
20071215 14:30	-1.8	-4.8	-1.8	68	-6.9	8	21	67	0.00	1034.511	79	0.000	0
20071215 14:35	-1.7	-4.2	-1.7	68	-6.8	6	18	67	0.00	1034.578	58	0.000	0
20071215 14:40	-1.8	-5.4	-1.8	67	-7.1	10	21	67	0.00	1034.714	48	0.000	0
20071215 14:45	-1.9	-1.9	-1.9	69	-6.9	5	10	67	0.00	1034.748	34	0.000	0
20071215 14:50	-2.1	-4.6	-2.1	69	-7.0	6	19	67	0.00	1034.646	28	0.000	0
20071215 14:55	-2.2	-4.7	-2.2	69	-7.1	6	14	67	0.00	1034.714	25	0.000	0
20071215 15:00	-2.3	-2.3	-2.3	70	-7.0	5	14	67	0.00	1034.849	26	0.040	0
20071215 15:05	-2.3	-4.9	-2.3	69	-7.2	6	16	67	0.00	1034.883	32	0.000	0
20071215 15:10	-2.4	-5.5	-2.4	69	-7.3	8	18	67	0.00	1034.917	31	0.000	0
20071215 15:15	-2.4	-5.5	-2.4	69	-7.3	8	18	67	0.00	1034.883	30	0.000	0
20071215 15:20	-2.3	-4.9	-2.3	68	-7.4	6	16	67	0.00	1035.019	24	0.000	0
20071215 15:25	-2.4	-5.5	-2.4	69	-7.3	8	18	67	0.00	1034.917	23	0.000	0
20071215 15:30	-2.4	-5.0	-2.4	70	-7.2	6	23	67	0.00	1034.883	22	0.000	0
20071215 15:35	-2.4	-5.6	-2.4	69	-7.3	8	16	67	0.00	1034.849	19	0.000	0
20071215 15:40	-2.6	-5.7	-2.6	68	-7.6	8	18	67	0.00	1034.985	19	0.000	0
20071215 15:45	-2.6	-5.1	-2.6	70	-7.3	6	11	67	0.00	1034.951	14	0.000	0
20071215 15:50	-2.6	-5.8	-2.6	68	-7.7	8	23	67	0.00	1034.951	13	0.000	0
20071215 15:55	-2.7	-5.3	-2.7	69	-7.6	6	14	67	0.00	1034.883	14	0.000	0
20071215 16:00	-2.7	-5.9	-2.7	69	-7.6	8	19	67	0.00	1034.849	8	0.020	0
20071215 16:05	-2.7	-5.9	-2.7	70	-7.4	8	19	67	0.00	1034.782	5	0.000	0
20071215 16:10	-2.7	-5.3	-2.7	70	-7.4	6	18	67	0.00	1034.782	3	0.000	0
20071215 16:15	-2.7	-2.7	-2.7	71	-7.2	5	10	67	0.00	1034.782	0	0.000	0
20071215 16:20	-2.7	-5.9	-2.7	71	-7.2	8	18	67	0.00	1034.748	0	0.000	0
20071215 16:25	-2.7	-5.3	-2.7	71	-7.2	6	19	67	0.00	1034.849	0	0.000	0
20071215 16:30	-2.7	-6.8	-2.7	68	-7.7	11	27	67	0.00	1034.883	0	0.000	0
20071215 16:35	-2.7	-8.0	-2.7	68	-7.8	16	26	67	0.00	1034.748	0	0.000	0
20071215 16:40	-2.8	-7.7	-2.8	68	-7.9	14	24	67	0.00	1034.748	0	0.000	0
20071215 16:45	-2.8	-7.0	-2.8	68	-7.9	11	26	67	0.00	1034.714	0	0.000	0
20071215 16:50	-2.8	-6.6	-2.8	69	-7.7	10	26	67	0.00	1034.714	0	0.000	0
20071215 16:55	-2.8	-6.6	-2.8	69	-7.7	10	27	67	0.00	1034.646	0	0.000	0
20071215 17:00	-2.9	-6.1	-2.9	68	-8.0	8	16	67	0.00	1034.612	0	0.020	0
20071215 17:05	-2.9	-5.5	-2.9	69	-7.8	6	14	67	0.00	1034.612	0	0.000	0
20071215 17:10	-2.9	-6.1	-2.9	69	-7.8	8	18	67	0.00	1034.612	0	0.000	0
20071215 17:15	-2.9	-6.2	-2.9	70	-7.6	8	16	67	0.00	1034.680	0	0.000	0
20071215 17:20	-2.9	-6.7	-2.9	69	-7.8	10	24	67	0.00	1034.646	0	0.000	0
20071215 17:25	-2.9	-6.7	-2.9	68	-8.0	10	18	67	0.00	1034.714	0	0.000	0
20071215 17:30	-3.0	-5.6	-3.0	68	-8.1	6	14	67	0.00	1034.714	0	0.000	0
20071215 17:35	-3.0	-6.3	-3.0	69	-7.9	8	18	67	0.00	1034.782	0	0.000	0
20071215 17:40	-3.0	-6.3	-3.0	68	-8.1	8	18	67	0.00	1034.782	0	0.000	0
20071215 17:45	-3.0	-5.6	-3.0	69	-7.9	6	16	67	0.00	1034.883	0	0.000	0
20071215 17:50	-3.1	-5.7	-3.1	70	-7.7	6	16	67	0.00	1034.883	0	0.000	0
20071215 17:55	-3.2	-3.2	-3.2	69	-8.0	5	11	67	0.00	1034.849	0	0.000	0
20071215 18:00	-3.2	-6.5	-3.2	68	-8.3	8	23	67	0.00	1034.782	0	0.020	0
20071215 18:05	-3.3	-3.3	-3.3	68	-8.3	5	13	67	0.00	1034.849	0	0.000	0
20071215 18:10	-3.3	-6.7	-3.3	68	-8.4	8	16	67	0.00	1034.883	0	0.000	0
20071215 18:15	-3.4	-6.1	-3.4	69	-8.2	6	11	67	0.00	1034.748	0	0.000	0
20071215 18:20	-3.4	-6.2	-3.4	69	-8.3	6	11	67	0.00	1034.849	0	0.000	0
20071215 18:25	-3.4	-6.2	-3.4	68	-8.5	6	11	67	0.00	1034.849	0	0.000	0
20071215 18:30	-3.4	-6.1	-3.4	69	-8.2	6	16	67	0.00	1034.883	0	0.000	0
20071215 18:35	-3.3	-6.0	-3.3	70	-8.0	6	19	67	0.00	1034.951	0	0.000	0
20071215 18:40	-3.3	-3.3	-3.3	71	-7.8	5	16	67	0.00	1034.917	0	0.000	0
20071215 18:45	-3.2	-5.9	-3.2	71	-7.7	6	16	67	0.00	1034.849	0	0.000	0
20071215 18:50	-3.2	-5.8	-3.2	71	-7.7	6	19	67	0.00	1034.917	0	0.000	0
20071215 18:55	-3.2	-5.8	-3.2	71	-7.7	6	14	67	0.00	1034.951	0	0.000	0
20071215 19:00	-3.1	-5.8	-3.1	71	-7.6	6	16	67	0.00	1034.951	0	0.020	0
20071215 19:05	-3.1	-5.8	-3.1	71	-7.6	6	18	67	0.00	1035.154	0	0.000	0
20071215 19:10	-3.1	-5.8	-3.1	72	-7.4	6	14	67	0.00	1035.019	0	0.000	0
20071215 19:15	-3.1	-5.7	-3.1	71	-7.6	6	19	67	0.00	1035.053	0	0.000	0
20071215 19:20	-3.1	-3.1	-3.1	71	-7.6	5	16	67	0.00	1035.019	0	0.000	0
20071215 19:25	-3.2	-3.2	-3.2	71	-7.7	5	11	67	0.00	1035.120	0	0.000	0
20071215 19:30	-3.2	-3.2	-3.2	71	-7.7	5	10	67	0.00	1035.120	0	0.000	0
20071215 19:35	-3.3	-3.3	-3.3	72	-7.6	3	10	67	0.00	1035.120	0	0.000	0
20071215 19:40	-3.4	-3.4	-3.4	73	-7.5	5	10	67	0.00	1035.188	0	0.000	0
20071215 19:45	-3.4	-3.4	-3.4	73	-7.6	3	8	67	0.00	1035.256	0	0.000	0
20071215 19:50	-3.5	-3.5	-3.5	73	-7.6	5	8	67	0.00	1035.290	0	0.000	0
20071215 19:55	-3.5	-3.5	-3.5	74	-7.5	5	10	67	0.00	1035.256	0	0.000	0
20071215 20:00	-3.6	-3.6	-3.6	74	-7.5	3	6	67	0.00	1035.222	0	0.020	0
20071215 20:05	-3.6	-3.6	-3.6	75	-7.3	3	8	67	0.00	1035.120	0	0.000	0
20071215 20:10	-3.6	-3.6	-3.6	75	-7.3	3	8	67	0.00	1035.120	0	0.000	0
20071215 20:15	-3.6	-3.6	-3.6	75	-7.3	3	8	67	0.00	1035.120	0	0.000	0
20071215 20:20	-3.5	-3.5	-3.5	75	-7.3	2	8	67	0.00	1035.019	0	0.000	0
20071215 20:25	-3.5	-3.5	-3.5	75	-7.3	3	6	67	0.00	1035.019	0	0.000	0
20071215 20:30	-3.4	-3.4	-3.4	75	-7.2	3	10	67	0.00	1035.086	0	0.000	0
20071215 20:35	-3.4	-3.4	-3.4	75	-7.2	3	8	67	0.00	1035.086	0	0.000	0
20071215 20:40	-3.4	-3.4	-3.4	75	-7.2	2	6	67	0.00	1035.053	0	0.000	0
20071215 20:45	-3.3	-3.3	-3.3	75	-7.1	3	8	67	0.00	1035.053	0	0.000	0
20071215 20:50	-3.3	-3.3	-3.3	76	-6.9	5	8	67	0.00	1035.053	0	0.000	0
20071215 20:55	-3.3	-3.3	-3.3	75	-7.1	5	8	67	0.00	1035.188	0	0.000	0
20071215 21:00	-3.3	-3.3	-3.3	77	-6.7	5	8	67	0.00	1035.290	0	0.020	0
20071215 21:05	-3.2	-3.2	-3.2	77	-6.7	5	10	67	0.00	1035.290	0	0.000	0
20071215 21:10	-3.2	-5.9	-3.2	77	-6.7	6	10	67	0.00	1035.290	0	0.000	0
20071215 21:15	-3.2	-5.9	-3.2	77	-6.7	6	13	67	0.00	1035.256	0	0.000	0
20071215 21:20	-3.2	-5.8	-3.2	77	-6.6	6	11	67	0.00	1035.323	0	0.000	0
20071215 21:25	-3.2	-3.2	-3.2	77	-6.6	3	8	67	0.00	1035.323	0	0.000	0
20071215 21:30	-3.2	-3.2	-3.2	77	-6.6	3	6	67	0.00	1035.357	0	0.000	0
20071215 21:35	-3.1	-5.8	-3.1	76	-6.7	6	11	67	0.00	1035.425	0	0.000	0
20071215 21:40	-3.1	-3.1	-3.1	77	-6.6	5	10	67	0.00	1035.459	0	0.000	0
20071215 21:45	-3.1	-3.1	-3.1	77	-6.6	5	8	67	0.00	1035.391	0	0.000	0
20071215 21:50	-3.1	-5.7	-3.1	77	-6.5	6	10	67	0.00	1035.323	0	0.000	0
20071215 21:55	-3.1	-3.1	-3.1	78	-6.3	5	8	67	0.00	1035.323	0	0.000	0
20071215 22:00	-3.1	-5.7	-3.1	77	-6.5	6	10	67	0.00	1035.391	0	0.020	0
20071215 22:05	-3.0	-3.0	-3.0	77	-6.5	5	8	67	0.00	1035.290	0	0.000	0
20071215 22:10	-3.0	-5.6	-3.0	77	-6.5	6	10	67	0.00	1035.256	0	0.000	0
20071215 22:15	-3.0	-5.6	-3.0	77	-6.5	6	10	67	0.00	1035.290	0	0.000	0
20071215 22:20	-3.0	-5.6	-3.0	77	-6.5	6	10	67	0.00	1035.256	0	0.000	0
20071215 22:25	-3.0	-3.0	-3.0	77	-6.5	5	11	67	0.00	1035.188	0	0.000	0
20071215 22:30	-3.0	-3.0	-3.0	77	-6.5	5	10	67	0.00	1035.188	0	0.000	0
20071215 22:35	-2.9	-2.9	-2.9	77	-6.4	5	8	67	0.00	1035.154	0	0.000	0
20071215 22:40	-2.9	-2.9	-2.9	78	-6.2	5	8	67	0.00	1035.154	0	0.000	0
20071215 22:45	-2.9	-2.9	-2.9	78	-6.2	5	8	67	0.00	1035.154	0	0.000	0
20071215 22:50	-2.9	-2.9	-2.9	78	-6.2	5	6	67	0.00	1035.154	0	0.000	0
20071215 22:55	-2.9	-5.6	-2.9	77	-6.4	6	11	67	0.00	1035.154	0	0.000	0
20071215 23:00	-2.9	-5.6	-2.9	77	-6.4	6	11	67	0.00	1035.256	0	0.020	0
20071215 23:05	-2.9	-5.6	-2.9	77	-6.4	6	10	67	0.00	1035.222	0	0.000	0
20071215 23:10	-2.9	-2.9	-2.9	77	-6.3	3	6	67	0.00	1035.222	0	0.000	0
20071215 23:15	-2.9	-2.9	-2.9	77	-6.3	5	8	67	0.00	1035.256	0	0.000	0
20071215 23:20	-2.9	-2.9	-2.9	77	-6.3	5	8	67	0.00	1035.290	0	0.000	0
20071215 23:25	-2.9	-2.9	-2.9	77	-6.3	3	6	67	0.00	1035.290	0	0.000	0
20071215 23:30	-2.9	-2.9	-2.9	76	-6.5	5	10	67	0.00	1035.222	0	0.000	0
20071215 23:35	-2.9	-2.9	-2.9	77	-6.3	3	10	67	0.00	1035.222	0	0.000	0
20071215 23:40	-2.9	-2.9	-2.9	77	-6.3	3	6	67	0.00	1035.120	0	0.000	0
20071215 23:45	-2.9	-2.9	-2.9	77	-6.3	2	5	67	0.00	1035.019	0	0.000	0
20071215 23:50	-2.9	-2.9	-2.9	77	-6.3	3	8	67	0.00	1035.086	0	0.000	0
20071215 23:55	-2.9	-2.9	-2.9	77	-6.3	5	8	67	0.00	1035.086	0	0.000	0
20071215 24:00	-2.9	-2.9	-2.9	77	-6.3	3	10	67	0.00	1035.019	0	0.020	0



Please note the license to use and transfer of this data:
http://creativecommons.org/licenses/by-nc-sa/3.0/deed.en

Bitte beachten sie die Lizenz zur Verwertung und Weitergabe der Daten:
http://creativecommons.org/licenses/by-nc-sa/3.0/deed.de

zurück zur Übersicht der Archivdaten (Monats und Tagesdaten)

Cookies helfen bei der Bereitstellung von Inhalten. Durch die Nutzung dieser Seiten erklärst du dich damit einverstanden, dass Cookies auf deinem Rechner gespeichert werden. Weitere Information